Time;durP1;ratioP1;P1;durP2;ratioP2;P2;SDS_P1;SDS_P2;PMS_P1;PMS_P2;Temp;Humidity;BMP_temperature;BMP_pressure;BME280_temperature;BME280_humidity;BME280_pressure;Samples;Min_cycle;Max_cycle;Signal;HPM_P1;HPM_P2
2021/03/13 00:01:31;;;;;;;1.90;1.00;;;5.80;99.90;;;-141.85;100.00;63675.41;5030397;28;20251;-60
2021/03/13 00:03:59;;;;;;;1.00;0.60;;;5.80;99.90;;;-141.85;100.00;63675.41;5032119;28;20197;-60
2021/03/13 00:06:26;;;;;;;1.80;1.00;;;5.80;99.90;;;-141.85;100.00;63675.41;5032272;28;20257;-60
2021/03/13 00:08:54;;;;;;;1.77;0.70;;;5.90;99.90;;;-141.85;100.00;63675.41;5035299;28;20291;-60
2021/03/13 00:11:22;;;;;;;1.10;1.00;;;5.90;99.90;;;-141.85;100.00;63675.41;5035984;28;20233;-59
2021/03/13 00:13:49;;;;;;;2.00;1.00;;;5.90;99.90;;;-141.85;100.00;63675.41;5036372;28;20292;-61
2021/03/13 00:16:16;;;;;;;1.33;1.20;;;5.80;99.90;;;-141.85;100.00;63675.41;5036677;28;20240;-58
2021/03/13 00:18:43;;;;;;;0.63;0.63;;;5.80;99.90;;;-141.85;100.00;63675.41;5036384;28;20292;-62
2021/03/13 00:21:10;;;;;;;1.10;0.97;;;5.80;99.90;;;-141.85;100.00;63675.41;5036524;28;20265;-60
2021/03/13 00:23:37;;;;;;;1.00;0.90;;;5.70;99.90;;;-141.85;100.00;63675.41;5036491;28;20301;-60
2021/03/13 00:26:04;;;;;;;2.50;0.80;;;5.70;99.90;;;-141.85;100.00;63675.41;5036642;28;20211;-59
2021/03/13 00:28:32;;;;;;;1.47;0.60;;;5.80;99.90;;;-141.85;100.00;63675.41;5036317;28;20200;-61
2021/03/13 00:30:59;;;;;;;1.47;0.70;;;5.90;99.90;;;-141.85;100.00;63675.41;5036311;28;20278;-61
2021/03/13 00:33:28;;;;;;;1.10;1.00;;;5.90;99.90;;;-141.85;100.00;63675.41;5036099;28;20240;-60
2021/03/13 00:35:55;;;;;;;1.13;0.70;;;6.00;99.90;;;-141.85;100.00;63675.41;5036128;28;20346;-60
2021/03/13 00:38:23;;;;;;;2.17;1.00;;;6.10;99.90;;;-141.85;100.00;63675.41;5036405;28;20201;-61
2021/03/13 00:40:51;;;;;;;1.80;0.70;;;6.20;99.90;;;-141.85;100.00;63675.41;5036423;28;20268;-60
2021/03/13 00:43:19;;;;;;;1.40;0.90;;;6.10;99.90;;;-141.85;100.00;63675.41;5036180;28;20228;-59
2021/03/13 00:45:48;;;;;;;1.07;0.90;;;6.10;99.90;;;-141.85;100.00;63675.41;5035845;28;20236;-59
2021/03/13 00:48:16;;;;;;;1.37;0.93;;;6.20;99.90;;;-141.85;100.00;63675.41;5035654;28;20248;-62
2021/03/13 00:50:46;;;;;;;3.53;0.70;;;6.20;99.90;;;-141.85;100.00;63675.41;5036125;28;20229;-60
2021/03/13 00:53:14;;;;;;;2.40;1.27;;;6.20;99.90;;;-141.85;100.00;63675.41;5036041;28;20209;-60
2021/03/13 00:55:42;;;;;;;1.10;0.97;;;6.10;99.90;;;-141.85;100.00;63675.41;5035889;28;20299;-62
2021/03/13 00:58:09;;;;;;;3.00;1.20;;;6.10;99.90;;;-141.85;100.00;63675.41;5035883;28;20216;-60
2021/03/13 01:00:39;;;;;;;1.17;0.90;;;6.20;99.90;;;-141.85;100.00;63675.41;5035766;28;20251;-60
2021/03/13 01:03:07;;;;;;;1.63;1.03;;;6.20;99.90;;;-141.85;100.00;63675.41;5035293;28;20245;-60
2021/03/13 01:05:35;;;;;;;2.43;1.17;;;6.20;99.90;;;-141.85;100.00;63675.41;5035921;28;20255;-60
2021/03/13 01:08:07;;;;;;;3.40;1.10;;;6.20;99.90;;;-141.85;100.00;63675.41;5035374;28;20677;-60
2021/03/13 01:10:50;;;;;;;1.50;0.97;;;6.20;99.90;;;-141.85;100.00;63675.41;5035675;28;20210;-60
2021/03/13 01:13:20;;;;;;;2.67;1.13;;;6.20;99.90;;;-141.85;100.00;63675.41;5035189;28;20597;-62
2021/03/13 01:15:48;;;;;;;1.67;1.20;;;6.20;99.90;;;-141.85;100.00;63675.41;5035319;28;20664;-60
2021/03/13 01:18:18;;;;;;;2.17;1.17;;;6.10;99.90;;;-141.85;100.00;63675.41;5035008;28;20206;-59
2021/03/13 01:20:46;;;;;;;1.63;1.00;;;6.20;99.90;;;-141.85;100.00;63675.41;5034596;28;20247;-59
2021/03/13 01:23:13;;;;;;;1.83;1.13;;;6.10;99.90;;;-141.85;100.00;63675.41;5035465;28;20603;-59
2021/03/13 01:25:40;;;;;;;1.97;1.03;;;6.00;99.90;;;-141.85;100.00;63675.41;5035525;28;20252;-59
2021/03/13 01:28:07;;;;;;;2.40;1.10;;;6.10;99.90;;;-141.85;100.00;63675.41;5035310;28;20244;-58
2021/03/13 01:30:41;;;;;;;0.90;0.70;;;6.10;99.90;;;-141.85;100.00;63675.41;5035148;28;20656;-60
2021/03/13 01:33:10;;;;;;;1.23;0.80;;;6.10;99.90;;;-141.85;100.00;63675.41;5035065;28;20201;-64
2021/03/13 01:35:37;;;;;;;1.77;1.40;;;6.10;99.90;;;-141.85;100.00;63675.41;5037177;28;20254;-63
2021/03/13 01:38:04;;;;;;;2.10;1.60;;;6.20;99.90;;;-141.85;100.00;63675.41;5038862;28;20212;-62
2021/03/13 01:40:32;;;;;;;1.97;1.10;;;6.20;99.90;;;-141.85;100.00;63675.41;5036758;28;20515;-63
2021/03/13 01:42:59;;;;;;;2.40;1.00;;;6.30;99.90;;;-141.85;100.00;63675.41;5035113;28;20205;-63
2021/03/13 01:45:26;;;;;;;2.13;1.00;;;6.20;99.90;;;-141.85;100.00;63675.41;5034605;28;20216;-62
2021/03/13 01:47:54;;;;;;;1.73;1.20;;;6.30;99.90;;;-141.85;100.00;63675.41;5034722;28;20595;-64
2021/03/13 01:50:22;;;;;;;1.57;1.10;;;6.20;99.90;;;-141.85;100.00;63675.41;5034672;28;20204;-64
2021/03/13 01:52:51;;;;;;;1.37;1.10;;;6.30;99.90;;;-141.85;100.00;63675.41;5034652;28;20696;-62
2021/03/13 01:55:19;;;;;;;2.17;1.37;;;6.30;99.90;;;-141.85;100.00;63675.41;5034917;28;20225;-62
2021/03/13 01:57:46;;;;;;;2.20;1.27;;;6.30;99.90;;;-141.85;100.00;63675.41;5034426;28;20723;-64
2021/03/13 02:00:17;;;;;;;2.60;1.50;;;6.20;99.90;;;-141.85;100.00;63675.41;5034588;28;20285;-62
2021/03/13 02:02:44;;;;;;;1.40;1.30;;;6.20;99.90;;;-141.85;100.00;63675.41;5034529;28;20192;-63
2021/03/13 02:05:21;;;;;;;2.10;1.13;;;6.20;99.90;;;-141.85;100.00;63675.41;5034560;28;20205;-63
2021/03/13 02:07:58;;;;;;;1.37;1.10;;;6.20;99.90;;;-141.85;100.00;63675.41;5034637;28;20243;-63
2021/03/13 02:10:37;;;;;;;2.17;0.80;;;6.20;99.90;;;-141.85;100.00;63675.41;5034644;28;20189;-63
2021/03/13 02:13:19;;;;;;;1.80;1.00;;;6.10;99.90;;;-141.85;100.00;63675.41;5034119;28;20236;-63
2021/03/13 02:16:01;;;;;;;1.97;1.20;;;6.10;99.90;;;-141.85;100.00;63675.41;5034711;28;20247;-62
2021/03/13 02:18:38;;;;;;;2.30;1.00;;;6.00;99.90;;;-141.85;100.00;63675.41;5034244;28;20202;-62
2021/03/13 02:21:13;;;;;;;1.10;1.00;;;6.10;99.90;;;-141.85;100.00;63675.41;5034488;28;20194;-63
2021/03/13 02:24:12;;;;;;;0.83;0.80;;;6.10;99.90;;;-141.85;100.00;63675.41;5034362;28;20184;-63
2021/03/13 02:27:02;;;;;;;1.97;1.10;;;6.10;99.90;;;-141.85;100.00;63675.41;5034617;28;20220;-62
2021/03/13 02:29:38;;;;;;;2.23;0.83;;;6.00;99.90;;;-141.85;100.00;63675.41;5033989;28;20191;-62
2021/03/13 02:32:11;;;;;;;1.30;0.87;;;6.00;99.90;;;-141.85;100.00;63675.41;5033744;28;20239;-61
2021/03/13 02:34:44;;;;;;;1.50;0.93;;;6.10;99.90;;;-141.85;100.00;63675.41;5033805;28;20634;-64
2021/03/13 02:37:20;;;;;;;0.93;0.73;;;6.20;99.90;;;-141.85;100.00;63675.41;5034106;28;20223;-63
2021/03/13 02:39:51;;;;;;;2.00;0.97;;;6.10;99.90;;;-141.85;100.00;63675.41;5034068;28;20221;-64
2021/03/13 02:42:23;;;;;;;2.17;0.90;;;6.10;99.90;;;-141.85;100.00;63675.41;5033655;28;20280;-63
2021/03/13 02:44:52;;;;;;;1.77;0.90;;;6.10;99.90;;;-141.85;100.00;63675.41;5033649;28;20279;-62
2021/03/13 02:47:20;;;;;;;0.90;0.90;;;6.20;99.90;;;-141.85;100.00;63675.41;5033550;28;20299;-63
2021/03/13 02:49:51;;;;;;;0.80;0.80;;;6.10;99.90;;;-141.85;100.00;63675.41;5033791;28;20195;-62
2021/03/13 02:52:21;;;;;;;1.43;1.00;;;6.20;99.90;;;-141.85;100.00;63675.41;5033239;28;20235;-62
2021/03/13 02:54:52;;;;;;;1.47;1.07;;;6.20;99.90;;;-141.85;100.00;63675.41;5033345;28;20202;-62
2021/03/13 02:57:22;;;;;;;1.37;1.00;;;6.10;99.90;;;-141.85;100.00;63675.41;5033446;28;20234;-63
2021/03/13 02:59:52;;;;;;;1.30;1.20;;;6.20;99.90;;;-141.85;100.00;63675.41;5033074;28;20213;-63
2021/03/13 03:02:21;;;;;;;1.00;0.90;;;6.20;99.90;;;-141.85;100.00;63675.41;5033211;28;20510;-63
2021/03/13 03:04:52;;;;;;;1.07;0.90;;;6.30;99.90;;;-141.85;100.00;63675.41;5033107;28;20197;-62
2021/03/13 03:07:26;;;;;;;2.10;1.00;;;6.20;99.90;;;-141.85;100.00;63675.41;5033556;28;20259;-63
2021/03/13 03:09:55;;;;;;;1.63;1.00;;;6.20;99.90;;;-141.85;100.00;63675.41;5033614;28;20267;-63
2021/03/13 03:12:24;;;;;;;0.90;0.90;;;6.20;99.90;;;-141.85;100.00;63675.41;5033269;28;20877;-62
2021/03/13 03:14:56;;;;;;;1.43;0.90;;;6.20;99.90;;;-141.85;100.00;63675.41;5032968;28;20228;-62
2021/03/13 03:17:26;;;;;;;0.97;0.80;;;6.20;99.90;;;-141.85;100.00;63675.41;5032935;28;20209;-63
2021/03/13 03:19:55;;;;;;;0.87;0.87;;;6.20;99.90;;;-141.85;100.00;63675.41;5033377;28;20277;-63
2021/03/13 03:22:24;;;;;;;1.00;1.00;;;6.20;99.90;;;-141.85;100.00;63675.41;5033027;28;20201;-63
2021/03/13 03:24:54;;;;;;;1.17;0.90;;;6.20;99.90;;;-141.85;100.00;63675.41;5033172;28;20300;-63
2021/03/13 03:27:21;;;;;;;1.50;0.90;;;6.00;99.90;;;-141.85;100.00;63675.41;5033267;28;20228;-63
2021/03/13 03:29:48;;;;;;;2.07;0.80;;;6.10;99.90;;;-141.85;100.00;63675.41;5032556;28;20247;-63
2021/03/13 03:32:27;;;;;;;0.90;0.80;;;6.10;99.90;;;-141.85;100.00;63675.41;5032876;28;20225;-62
2021/03/13 03:34:54;;;;;;;0.97;0.80;;;6.00;99.90;;;-141.85;100.00;63675.41;5032893;28;20202;-64
2021/03/13 03:37:21;;;;;;;1.00;0.90;;;6.00;99.90;;;-141.85;100.00;63675.41;5033035;28;20272;-65
2021/03/13 03:39:49;;;;;;;1.27;0.80;;;6.00;99.90;;;-141.85;100.00;63675.41;5033084;28;20209;-62
2021/03/13 03:42:18;;;;;;;0.93;0.83;;;6.10;99.90;;;-141.85;100.00;63675.41;5032399;28;20205;-62
2021/03/13 03:44:50;;;;;;;1.70;0.90;;;6.00;99.90;;;-141.85;100.00;63675.41;5032494;28;20299;-63
2021/03/13 03:47:19;;;;;;;1.97;0.90;;;6.00;99.90;;;-141.85;100.00;63675.41;5032460;28;20281;-62
2021/03/13 03:49:48;;;;;;;1.67;1.07;;;6.00;99.90;;;-141.85;100.00;63675.41;5033037;28;20200;-63
2021/03/13 03:52:17;;;;;;;1.60;0.90;;;6.00;99.90;;;-141.85;100.00;63675.41;5032925;28;20224;-63
2021/03/13 03:54:46;;;;;;;1.10;0.73;;;6.00;99.90;;;-141.85;100.00;63675.41;5032927;28;20202;-63
2021/03/13 03:57:15;;;;;;;1.23;0.80;;;5.90;99.90;;;-141.85;100.00;63675.41;5032825;28;20301;-62
2021/03/13 03:59:45;;;;;;;0.80;0.70;;;5.90;99.90;;;-141.85;100.00;63675.41;5032665;28;20227;-61
2021/03/13 04:02:14;;;;;;;0.80;0.80;;;5.90;99.90;;;-141.85;100.00;63675.41;5032157;28;20207;-63
2021/03/13 04:04:42;;;;;;;1.00;0.90;;;6.00;99.90;;;-141.85;100.00;63675.41;5032395;28;20224;-63
2021/03/13 04:07:10;;;;;;;2.33;1.00;;;6.00;99.90;;;-141.85;100.00;63675.41;5032183;28;20204;-63
2021/03/13 04:09:41;;;;;;;1.33;1.10;;;6.00;99.90;;;-141.85;100.00;63675.41;5032615;28;20679;-64
2021/03/13 04:12:10;;;;;;;1.47;0.90;;;5.90;99.90;;;-141.85;100.00;63675.41;5032655;28;20338;-63
2021/03/13 04:14:39;;;;;;;2.77;0.90;;;5.90;99.90;;;-141.85;100.00;63675.41;5032127;28;20759;-63
2021/03/13 04:17:07;;;;;;;1.47;0.90;;;5.90;99.90;;;-141.85;100.00;63675.41;5032575;28;20240;-64
2021/03/13 04:19:35;;;;;;;1.03;0.90;;;5.80;99.90;;;-141.85;100.00;63675.41;5032486;28;20201;-62
2021/03/13 04:22:03;;;;;;;1.60;1.43;;;5.80;99.90;;;-141.85;100.00;63675.41;5032569;28;20223;-61
2021/03/13 04:24:32;;;;;;;1.07;0.93;;;5.60;99.90;;;-141.85;100.00;63675.41;5032539;28;20228;-63
2021/03/13 04:27:01;;;;;;;1.60;0.93;;;5.60;99.90;;;-141.85;100.00;63675.41;5032271;28;20300;-62
2021/03/13 04:29:28;;;;;;;1.77;1.20;;;5.70;99.90;;;-141.85;100.00;63675.41;5031990;28;20599;-62
2021/03/13 04:32:00;;;;;;;1.20;1.10;;;5.50;99.90;;;-141.85;100.00;63675.41;5032026;28;20225;-63
2021/03/13 04:34:30;;;;;;;1.57;1.43;;;5.60;99.90;;;-141.85;100.00;63675.41;5031779;28;20207;-63
2021/03/13 04:36:58;;;;;;;1.90;1.30;;;5.50;99.90;;;-141.85;100.00;63675.41;5042201;28;20233;-63
2021/03/13 04:39:25;;;;;;;1.67;1.30;;;5.60;99.90;;;-141.85;100.00;63675.41;5032373;28;20312;-62
2021/03/13 04:41:56;;;;;;;1.57;1.10;;;5.60;99.90;;;-141.85;100.00;63675.41;5032542;28;20235;-63
2021/03/13 04:44:24;;;;;;;1.70;1.30;;;5.70;99.90;;;-141.85;100.00;63675.41;5031891;28;20229;-63
2021/03/13 04:46:53;;;;;;;1.50;1.30;;;5.70;99.90;;;-141.85;100.00;63675.41;5032424;28;20200;-63
2021/03/13 04:49:22;;;;;;;2.77;1.40;;;5.80;99.90;;;-141.85;100.00;63675.41;5032494;28;20235;-63
2021/03/13 04:51:50;;;;;;;2.07;1.50;;;5.70;99.90;;;-141.85;100.00;63675.41;5032301;28;20255;-62
2021/03/13 04:54:16;;;;;;;1.50;1.40;;;5.60;99.90;;;-141.85;100.00;63675.41;5034222;28;20213;-62
2021/03/13 04:56:43;;;;;;;2.60;1.90;;;5.70;99.90;;;-141.85;100.00;63675.41;5036067;28;20232;-63
2021/03/13 04:59:11;;;;;;;4.17;1.87;;;5.70;99.90;;;-141.85;100.00;63675.41;5035876;28;20239;-61
2021/03/13 05:01:38;;;;;;;4.50;1.70;;;5.80;99.90;;;-141.85;100.00;63675.41;5036014;28;20201;-63
2021/03/13 05:04:06;;;;;;;2.20;1.57;;;5.90;99.90;;;-141.85;100.00;63675.41;5035586;28;20262;-63
2021/03/13 05:06:33;;;;;;;2.60;2.13;;;5.90;99.90;;;-141.85;100.00;63675.41;5035779;28;20625;-62
2021/03/13 05:08:59;;;;;;;3.20;2.20;;;5.90;99.90;;;-141.85;100.00;63675.41;5035569;28;20299;-62
2021/03/13 05:11:26;;;;;;;3.10;2.30;;;5.90;99.90;;;-141.85;100.00;63675.41;5035723;28;20288;-62
2021/03/13 05:13:53;;;;;;;2.60;2.00;;;5.90;99.90;;;-141.85;100.00;63675.41;5035621;28;20235;-63
2021/03/13 05:16:21;;;;;;;2.13;1.93;;;6.00;99.90;;;-141.85;100.00;63675.41;5035638;28;20231;-62
2021/03/13 05:18:48;;;;;;;2.30;1.90;;;5.90;99.90;;;-141.85;100.00;63675.41;5035730;28;20207;-62
2021/03/13 05:21:15;;;;;;;2.70;2.00;;;5.90;99.90;;;-141.85;100.00;63675.41;5035895;28;20204;-62
2021/03/13 05:23:43;;;;;;;2.37;2.10;;;5.90;99.90;;;-141.85;100.00;63675.41;5035649;28;20304;-62
2021/03/13 05:26:10;;;;;;;3.33;2.07;;;5.80;99.90;;;-141.85;100.00;63675.41;5032684;28;20554;-62
2021/03/13 05:28:37;;;;;;;3.57;2.30;;;5.90;99.90;;;-141.85;100.00;63675.41;5035209;28;20307;-62
2021/03/13 05:31:05;;;;;;;2.40;2.10;;;6.00;99.90;;;-141.85;100.00;63675.41;5035315;28;20253;-63
2021/03/13 05:33:33;;;;;;;2.87;2.30;;;6.00;99.90;;;-141.85;100.00;63675.41;5034665;28;20664;-62
2021/03/13 05:36:01;;;;;;;2.90;2.00;;;6.00;99.90;;;-141.85;100.00;63675.41;5034932;28;20336;-64
2021/03/13 05:38:28;;;;;;;2.77;2.20;;;6.10;99.90;;;-141.85;100.00;63675.41;5034855;28;20208;-62
2021/03/13 05:40:56;;;;;;;3.27;2.10;;;6.10;99.90;;;-141.85;100.00;63675.41;5034074;28;20749;-62
2021/03/13 05:43:24;;;;;;;2.90;1.93;;;6.10;99.90;;;-141.85;100.00;63675.41;5034432;28;20207;-63
2021/03/13 05:45:52;;;;;;;3.07;2.10;;;6.10;99.90;;;-141.85;100.00;63675.41;5034913;28;20615;-62
2021/03/13 05:48:23;;;;;;;2.30;2.10;;;6.10;99.90;;;-141.85;100.00;63675.41;5035353;28;20208;-62
2021/03/13 05:50:54;;;;;;;3.13;2.10;;;6.20;99.90;;;-141.85;100.00;63675.41;5035676;28;20220;-63
2021/03/13 05:53:21;;;;;;;2.33;2.10;;;6.20;99.90;;;-141.85;100.00;63675.41;5036327;28;20208;-62
2021/03/13 05:55:49;;;;;;;2.30;1.90;;;6.20;99.90;;;-141.85;100.00;63675.41;5036051;28;20203;-62
2021/03/13 05:58:16;;;;;;;2.10;1.60;;;6.30;99.90;;;-141.85;100.00;63675.41;5035371;28;20283;-62
2021/03/13 06:00:43;;;;;;;2.27;2.00;;;6.30;99.90;;;-141.85;100.00;63675.41;5035182;28;20263;-63
2021/03/13 06:03:10;;;;;;;2.30;1.83;;;6.40;99.90;;;-141.85;100.00;63675.41;5034868;28;20679;-61
2021/03/13 06:05:38;;;;;;;3.20;1.77;;;6.30;99.90;;;-141.85;100.00;63675.41;5033911;28;20240;-63
2021/03/13 06:08:07;;;;;;;2.23;1.83;;;6.40;99.90;;;-141.85;100.00;63675.41;5034494;28;20246;-63
2021/03/13 06:10:34;;;;;;;2.20;2.00;;;6.40;99.90;;;-141.85;100.00;63675.41;5034516;28;20242;-62
2021/03/13 06:13:01;;;;;;;2.23;2.03;;;6.50;99.90;;;-141.85;100.00;63675.41;5034170;28;20643;-63
2021/03/13 06:15:30;;;;;;;2.97;1.90;;;6.50;99.90;;;-141.85;100.00;63675.41;5034416;28;20284;-63
2021/03/13 06:17:59;;;;;;;4.00;2.00;;;6.50;99.90;;;-141.85;100.00;63675.41;5034227;28;20239;-63
2021/03/13 06:20:33;;;;;;;2.10;1.87;;;6.60;99.90;;;-141.85;100.00;63675.41;5034212;28;20657;-62
2021/03/13 06:23:03;;;;;;;2.10;1.80;;;6.60;99.90;;;-141.85;100.00;63675.41;5034079;28;20654;-62
2021/03/13 06:25:31;;;;;;;2.53;2.10;;;6.60;99.90;;;-141.85;100.00;63675.41;5034201;28;20292;-63
2021/03/13 06:28:11;;;;;;;2.30;2.07;;;6.70;99.90;;;-141.85;100.00;63675.41;5034233;28;20209;-63
2021/03/13 06:30:42;;;;;;;2.20;2.00;;;6.70;99.90;;;-141.85;100.00;63675.41;5033874;28;20276;-62
2021/03/13 06:33:25;;;;;;;3.20;1.80;;;6.70;99.90;;;-141.85;100.00;63675.41;5034237;28;20220;-63
2021/03/13 06:35:55;;;;;;;2.07;1.70;;;6.70;99.90;;;-141.85;100.00;63675.41;5043695;28;20233;-62
2021/03/13 06:38:24;;;;;;;2.40;1.97;;;6.70;99.90;;;-141.85;100.00;63675.41;5014322;28;20212;-63
2021/03/13 06:40:55;;;;;;;2.90;2.07;;;6.70;99.90;;;-141.85;100.00;63675.41;5014020;28;20217;-62
2021/03/13 06:43:28;;;;;;;2.03;1.87;;;6.80;99.90;;;-141.85;100.00;63675.41;5014182;28;20182;-63
2021/03/13 06:46:02;;;;;;;3.67;2.07;;;6.80;99.90;;;-141.85;100.00;63675.41;5014222;28;20281;-63
2021/03/13 06:48:38;;;;;;;2.10;1.67;;;6.80;99.90;;;-141.85;100.00;63675.41;5014231;28;20183;-63
2021/03/13 06:51:22;;;;;;;2.87;1.90;;;6.80;99.90;;;-141.85;100.00;63675.41;5014055;28;20601;-63
2021/03/13 06:54:15;;;;;;;2.27;1.80;;;6.80;99.90;;;-141.85;100.00;63675.41;5014005;28;20245;-62
2021/03/13 06:56:45;;;;;;;1.73;1.63;;;6.80;99.90;;;-141.85;100.00;63675.41;5013744;28;20222;-63
2021/03/13 06:59:26;;;;;;;2.00;1.80;;;6.80;99.90;;;-141.85;100.00;63675.41;5019490;28;20289;-62
2021/03/13 07:02:02;;;;;;;1.70;1.60;;;6.80;99.90;;;-141.85;100.00;63675.41;5033682;28;20189;-64
2021/03/13 07:04:31;;;;;;;18.43;10.60;;;6.80;99.90;;;-141.85;100.00;63675.41;5033667;28;20194;-62
2021/03/13 07:06:58;;;;;;;3.10;2.20;;;6.90;99.90;;;-141.85;100.00;63675.41;5033034;28;20295;-62
2021/03/13 07:09:48;;;;;;;3.27;2.40;;;6.90;99.90;;;-141.85;100.00;63675.41;5033240;28;20206;-62
2021/03/13 07:12:34;;;;;;;3.37;2.00;;;7.00;99.90;;;-141.85;100.00;63675.41;5033140;28;20217;-62
2021/03/13 07:15:19;;;;;;;1.40;1.30;;;7.10;99.90;;;-141.85;100.00;63675.41;5029869;28;20209;-62
2021/03/13 07:17:49;;;;;;;2.70;2.17;;;7.20;99.90;;;-141.85;100.00;63675.41;5024283;28;20201;-61
2021/03/13 07:20:21;;;;;;;1.60;1.50;;;7.30;99.90;;;-141.85;100.00;63675.41;5020463;28;20214;-67
2021/03/13 07:22:53;;;;;;;2.57;1.50;;;7.40;99.90;;;-141.85;100.00;63675.41;5023931;28;20678;-64
2021/03/13 07:25:23;;;;;;;4.13;3.73;;;7.50;99.90;;;-141.85;100.00;63675.41;5032938;28;20276;-64
2021/03/13 07:27:55;;;;;;;1.13;1.13;;;7.70;99.90;;;-141.85;100.00;63675.41;5032901;28;20213;-63
2021/03/13 07:30:25;;;;;;;1.27;1.17;;;7.80;99.90;;;-141.85;100.00;63675.41;5032960;28;20252;-64
2021/03/13 07:32:59;;;;;;;1.10;0.90;;;7.90;99.90;;;-141.85;100.00;63675.41;5032906;28;20367;-64
2021/03/13 07:35:41;;;;;;;0.83;0.83;;;8.10;99.90;;;-141.85;100.00;63675.41;5028028;28;20238;-64
2021/03/13 07:38:12;;;;;;;1.10;1.00;;;8.10;99.90;;;-141.85;100.00;63675.41;5018529;28;20257;-65
2021/03/13 07:40:44;;;;;;;1.10;1.00;;;8.20;99.90;;;-141.85;100.00;63675.41;5019316;28;20237;-64
2021/03/13 07:43:14;;;;;;;0.70;0.70;;;8.30;99.90;;;-141.85;100.00;63675.41;5015312;28;20685;-64
2021/03/13 07:45:42;;;;;;;1.03;0.77;;;8.40;99.90;;;-141.85;100.00;63675.41;5020561;28;20606;-64
2021/03/13 07:48:10;;;;;;;0.77;0.60;;;8.50;99.90;;;-141.85;100.00;63675.41;5013213;28;20641;-65
2021/03/13 07:50:39;;;;;;;1.00;0.87;;;8.60;99.90;;;-141.85;100.00;63675.41;5012944;28;20540;-65
2021/03/13 07:53:09;;;;;;;0.70;0.70;;;8.60;99.90;;;-141.85;100.00;63675.41;5013119;28;20226;-64
2021/03/13 07:55:38;;;;;;;0.80;0.60;;;8.60;99.90;;;-141.85;100.00;63675.41;5012866;28;20609;-65
2021/03/13 07:58:09;;;;;;;0.67;0.67;;;8.60;99.90;;;-141.85;100.00;63675.41;5012772;28;20206;-65
2021/03/13 08:00:45;;;;;;;0.53;0.50;;;8.60;99.90;;;-141.85;100.00;63675.41;5023169;28;20237;-65
2021/03/13 08:03:48;;;;;;;1.13;0.40;;;8.60;99.90;;;-141.85;100.00;63675.41;5013093;28;20218;-64
2021/03/13 08:06:17;;;;;;;0.50;0.50;;;8.60;99.90;;;-141.85;100.00;63675.41;4980625;28;20203;-65
2021/03/13 08:08:46;;;;;;;0.93;0.60;;;8.60;99.90;;;-141.85;100.00;63675.41;5021168;28;20205;-64
2021/03/13 08:11:14;;;;;;;0.50;0.50;;;8.60;99.90;;;-141.85;100.00;63675.41;5027599;28;20297;-65
2021/03/13 08:13:54;;;;;;;0.60;0.50;;;8.70;99.90;;;-141.85;100.00;63675.41;5012780;28;20211;-65
2021/03/13 08:16:42;;;;;;;1.37;1.20;;;8.80;99.90;;;-141.85;100.00;63675.41;5023171;28;20194;-65
2021/03/13 08:19:37;;;;;;;1.83;1.60;;;9.00;99.90;;;-141.85;100.00;63675.41;5032245;28;20197;-64
2021/03/13 08:22:25;;;;;;;0.57;0.57;;;9.10;99.90;;;-141.85;100.00;63675.41;5016331;28;20672;-66
2021/03/13 08:24:54;;;;;;;0.50;0.40;;;9.20;99.90;;;-141.85;100.00;63675.41;5029422;28;20190;-65
2021/03/13 08:27:42;;;;;;;0.90;0.50;;;9.40;99.90;;;-141.85;100.00;63675.41;5018769;28;20310;-66
2021/03/13 08:30:24;;;;;;;0.67;0.50;;;9.30;99.90;;;-141.85;100.00;63675.41;5024470;28;20296;-63
2021/03/13 08:33:06;;;;;;;0.57;0.57;;;9.40;99.90;;;-141.85;100.00;63675.41;5019285;28;20210;-65
2021/03/13 08:35:52;;;;;;;0.40;0.40;;;9.40;99.90;;;-141.85;100.00;63675.41;5031605;28;20681;-62
2021/03/13 08:38:53;;;;;;;1.17;0.50;;;9.40;99.90;;;-141.85;100.00;63675.41;5016145;28;20203;-64
2021/03/13 08:41:50;;;;;;;0.60;0.60;;;9.30;99.90;;;-141.85;100.00;63675.41;5016247;28;20286;-64
2021/03/13 08:44:37;;;;;;;0.60;0.60;;;9.50;99.90;;;-141.85;100.00;63675.41;5031474;28;20665;-63
2021/03/13 08:47:07;;;;;;;0.60;0.60;;;9.40;99.90;;;-141.85;100.00;63675.41;5015864;28;20210;-62
2021/03/13 08:49:40;;;;;;;0.80;0.70;;;9.40;99.90;;;-141.85;100.00;63675.41;5015831;28;20354;-64
2021/03/13 08:52:28;;;;;;;0.77;0.70;;;9.40;99.90;;;-141.85;100.00;63675.41;5017190;28;20210;-62
2021/03/13 08:54:56;;;;;;;1.23;0.70;;;9.40;99.90;;;-141.85;100.00;63675.41;5018504;28;20203;-65
2021/03/13 08:57:48;;;;;;;1.27;0.60;;;9.40;99.90;;;-141.85;100.00;63675.41;5020474;28;20283;-64
2021/03/13 09:00:18;;;;;;;0.60;0.60;;;9.30;99.90;;;-141.85;100.00;63675.41;5018352;28;20214;-64
2021/03/13 09:02:50;;;;;;;1.43;0.67;;;9.30;99.90;;;-141.85;100.00;63675.41;5016751;28;20654;-65
2021/03/13 09:05:24;;;;;;;0.60;0.60;;;9.30;99.90;;;-141.85;100.00;63675.41;5021639;28;21148;-59
2021/03/13 09:07:54;;;;;;;0.80;0.70;;;9.40;99.90;;;-141.85;100.00;63675.41;5025877;28;20297;-59
2021/03/13 09:10:24;;;;;;;2.00;0.60;;;9.30;99.90;;;-141.85;100.00;63675.41;5026970;28;20277;-62
2021/03/13 09:12:51;;;;;;;0.77;0.70;;;9.30;99.90;;;-141.85;100.00;63675.41;5017099;28;20222;-61
2021/03/13 09:15:19;;;;;;;2.27;0.50;;;9.40;99.90;;;-141.85;100.00;63675.41;5030328;28;20287;-62
2021/03/13 09:17:47;;;;;;;0.70;0.70;;;9.50;99.90;;;-141.85;100.00;63675.41;5018025;28;20209;-61
2021/03/13 09:20:16;;;;;;;1.23;0.80;;;9.50;99.90;;;-141.85;100.00;63675.41;5014211;28;20736;-65
2021/03/13 09:22:47;;;;;;;1.47;0.80;;;9.50;99.90;;;-141.85;100.00;63675.41;5012676;28;20620;-65
2021/03/13 09:25:17;;;;;;;2.23;0.80;;;9.40;99.90;;;-141.85;100.00;63675.41;5014497;28;20190;-63
2021/03/13 09:27:45;;;;;;;1.57;0.80;;;9.40;99.90;;;-141.85;100.00;63675.41;5021171;28;20235;-62
2021/03/13 09:30:17;;;;;;;2.27;0.90;;;9.40;99.90;;;-141.85;100.00;63675.41;5027704;28;20276;-61
2021/03/13 09:32:46;;;;;;;1.43;0.90;;;9.40;99.90;;;-141.85;100.00;63675.41;5020674;28;20273;-59
2021/03/13 09:35:16;;;;;;;2.90;0.93;;;9.50;99.90;;;-141.85;100.00;63675.41;5027705;28;20291;-62
2021/03/13 09:37:44;;;;;;;1.57;0.87;;;9.60;99.90;;;-141.85;100.00;63675.41;5048112;28;20228;-59
2021/03/13 09:40:15;;;;;;;1.30;1.17;;;9.60;99.90;;;-141.85;100.00;63675.41;5053755;28;20251;-66
2021/03/13 09:42:45;;;;;;;1.20;0.90;;;9.70;99.90;;;-141.85;100.00;63675.41;5054625;28;20277;-64
2021/03/13 09:45:15;;;;;;;1.20;1.10;;;9.80;99.90;;;-141.85;100.00;63675.41;5054799;28;20221;-65
2021/03/13 09:47:44;;;;;;;2.60;1.00;;;9.90;99.90;;;-141.85;100.00;63675.41;5036572;28;20294;-63
2021/03/13 09:50:15;;;;;;;2.80;1.20;;;10.00;99.90;;;-141.85;100.00;63675.41;5025362;28;20363;-58
2021/03/13 09:52:46;;;;;;;2.57;0.93;;;10.10;99.90;;;-141.85;100.00;63675.41;5034312;28;20253;-59
2021/03/13 09:55:15;;;;;;;4.73;0.97;;;10.10;99.90;;;-141.85;100.00;63675.41;5034852;28;20213;-60
2021/03/13 09:57:46;;;;;;;2.60;1.07;;;10.20;99.90;;;-141.85;100.00;63675.41;5036584;28;20198;-63
2021/03/13 10:00:20;;;;;;;0.87;0.80;;;10.30;99.90;;;-141.85;100.00;63675.41;5035452;28;20194;-65
2021/03/13 10:02:49;;;;;;;0.77;0.70;;;10.40;99.90;;;-141.85;100.00;63675.41;5022205;28;20231;-66
2021/03/13 10:05:19;;;;;;;3.93;0.73;;;10.60;99.90;;;-141.85;100.00;63675.41;5034152;28;20209;-68
2021/03/13 10:07:49;;;;;;;1.97;0.80;;;10.60;99.90;;;-141.85;100.00;63675.41;5037256;28;20245;-70
2021/03/13 10:10:19;;;;;;;2.00;0.70;;;10.50;99.90;;;-141.85;100.00;63675.41;5033659;28;20565;-61
2021/03/13 10:12:48;;;;;;;2.03;0.90;;;10.50;99.90;;;-141.85;100.00;63675.41;5027092;28;20757;-58
2021/03/13 10:15:20;;;;;;;4.30;0.73;;;10.40;99.90;;;-141.85;100.00;63675.41;5021391;28;20203;-66
2021/03/13 10:17:57;;;;;;;4.50;1.03;;;10.50;99.90;;;-141.85;100.00;63675.41;5013770;28;20246;-68
2021/03/13 10:20:28;;;;;;;3.27;0.70;;;10.30;99.90;;;-141.85;100.00;63675.41;5018844;28;20209;-68
2021/03/13 10:23:03;;;;;;;2.10;1.00;;;10.20;99.90;;;-141.85;100.00;63675.41;5043569;28;20620;-66